Time;durP1;ratioP1;P1;durP2;ratioP2;P2;SDS_P1;SDS_P2;PMS_P1;PMS_P2;Temp;Humidity;BMP_temperature;BMP_pressure;BME280_temperature;BME280_humidity;BME280_pressure;Samples;Min_cycle;Max_cycle;Signal;HPM_P1;HPM_P2
2021/07/03 00:01:34;;;;;;;2.65;2.42;;;;;;;;;;5053991;28;20067;-68
2021/07/03 00:04:01;;;;;;;7.25;2.80;;;;;;;;;;5054192;28;20385;-69
2021/07/03 00:06:26;;;;;;;3.42;2.65;;;;;;;;;;5054016;28;20017;-68
2021/07/03 00:08:53;;;;;;;6.28;2.60;;;;;;;;;;5036394;28;20036;-69
2021/07/03 00:11:19;;;;;;;4.50;2.92;;;;;;;;;;5054064;28;20385;-68
2021/07/03 00:13:46;;;;;;;5.10;2.47;;;;;;;;;;5053804;28;20032;-69
2021/07/03 00:16:11;;;;;;;4.75;2.92;;;;;;;;;;5054105;28;20049;-69
2021/07/03 00:18:38;;;;;;;4.40;2.83;;;;;;;;;;5053711;28;20060;-69
2021/07/03 00:21:04;;;;;;;5.05;2.42;;;;;;;;;;5053819;28;20028;-69
2021/07/03 00:23:32;;;;;;;2.65;2.45;;;;;;;;;;5053680;28;20100;-69
2021/07/03 00:25:57;;;;;;;3.42;2.45;;;;;;;;;;5053624;28;20021;-68
2021/07/03 00:28:24;;;;;;;3.28;2.65;;;;;;;;;;5053644;28;20536;-68
2021/07/03 00:30:50;;;;;;;5.35;2.92;;;;;;;;;;5053633;28;20075;-68
2021/07/03 00:33:16;;;;;;;10.73;3.10;;;;;;;;;;5053732;28;20017;-69
2021/07/03 00:35:42;;;;;;;4.45;2.53;;;;;;;;;;5053316;28;20104;-68
2021/07/03 00:38:09;;;;;;;4.57;2.58;;;;;;;;;;5053521;28;20079;-69
2021/07/03 00:40:35;;;;;;;4.05;2.78;;;;;;;;;;5053223;28;20446;-68
2021/07/03 00:43:02;;;;;;;8.45;2.70;;;;;;;;;;5035488;28;20489;-69
2021/07/03 00:45:27;;;;;;;3.30;2.53;;;;;;;;;;5053180;28;20128;-68
2021/07/03 00:47:54;;;;;;;3.80;2.28;;;;;;;;;;5053335;28;20458;-69
2021/07/03 00:50:20;;;;;;;6.28;2.42;;;;;;;;;;5053502;28;20013;-69
2021/07/03 00:52:47;;;;;;;5.28;2.97;;;;;;;;;;5053557;28;20039;-69
2021/07/03 00:55:14;;;;;;;7.57;2.60;;;;;;;;;;5034373;28;20012;-69
2021/07/03 00:57:41;;;;;;;3.20;2.40;;;;;;;;;;5052978;28;20067;-69
2021/07/03 01:00:08;;;;;;;3.90;2.58;;;;;;;;;;5053064;28;20486;-69
2021/07/03 01:02:34;;;;;;;3.65;2.47;;;;;;;;;;5053147;28;20009;-69
2021/07/03 01:05:00;;;;;;;7.63;2.55;;;;;;;;;;5052983;28;20025;-69
2021/07/03 01:07:27;;;;;;;7.10;3.00;;;;;;;;;;5052894;28;20131;-68
2021/07/03 01:09:53;;;;;;;4.32;2.67;;;;;;;;;;5052482;28;20021;-68
2021/07/03 01:12:20;;;;;;;5.57;2.53;;;;;;;;;;5052912;28;20055;-69
2021/07/03 01:14:48;;;;;;;3.20;2.45;;;;;;;;;;5052789;28;20099;-69
2021/07/03 01:17:15;;;;;;;4.20;2.45;;;;;;;;;;5034833;28;20473;-69
2021/07/03 01:19:42;;;;;;;3.65;2.70;;;;;;;;;;5054069;28;20086;-68
2021/07/03 01:22:10;;;;;;;3.30;2.30;;;;;;;;;;5056708;28;20079;-69
2021/07/03 01:24:37;;;;;;;4.03;3.15;;;;;;;;;;5034735;28;20089;-68
2021/07/03 01:27:03;;;;;;;3.30;2.60;;;;;;;;;;5052554;28;20021;-69
2021/07/03 01:29:30;;;;;;;3.10;2.35;;;;;;;;;;5052533;28;20078;-69
2021/07/03 01:31:57;;;;;;;4.32;2.92;;;;;;;;;;5052600;28;20025;-69
2021/07/03 01:34:25;;;;;;;3.47;2.60;;;;;;;;;;5052536;28;20453;-68
2021/07/03 01:36:52;;;;;;;3.20;2.67;;;;;;;;;;5034634;28;20024;-69
2021/07/03 01:39:18;;;;;;;3.50;2.65;;;;;;;;;;5052083;28;20079;-69
2021/07/03 01:41:44;;;;;;;4.00;2.65;;;;;;;;;;5052270;28;20013;-69
2021/07/03 01:44:12;;;;;;;5.18;2.78;;;;;;;;;;5052117;28;20409;-69
2021/07/03 01:46:38;;;;;;;3.63;2.60;;;;;;;;;;5052564;28;20543;-69
2021/07/03 01:49:05;;;;;;;8.60;2.65;;;;;;;;;;5052382;28;20377;-69
2021/07/03 01:51:31;;;;;;;4.72;2.80;;;;;;;;;;5052061;28;20037;-68
2021/07/03 01:53:58;;;;;;;3.25;2.40;;;;;;;;;;5052061;28;20473;-69
2021/07/03 01:56:25;;;;;;;3.22;2.83;;;;;;;;;;5052319;28;20020;-69
2021/07/03 01:58:50;;;;;;;4.68;2.55;;;;;;;;;;5052254;28;20024;-69
2021/07/03 02:01:17;;;;;;;4.10;2.55;;;;;;;;;;5052283;28;20516;-69
2021/07/03 02:03:43;;;;;;;4.25;2.65;;;;;;;;;;5051852;28;20025;-69
2021/07/03 02:06:08;;;;;;;4.68;2.80;;;;;;;;;;5054379;28;20024;-69
2021/07/03 02:08:35;;;;;;;11.32;3.10;;;;;;;;;;5056087;28;20009;-68
2021/07/03 02:11:02;;;;;;;3.33;2.47;;;;;;;;;;5056267;28;20016;-68
2021/07/03 02:13:29;;;;;;;5.03;3.20;;;;;;;;;;5056174;28;20017;-68
2021/07/03 02:15:54;;;;;;;4.18;2.65;;;;;;;;;;5055850;28;20020;-69
2021/07/03 02:18:21;;;;;;;3.38;2.55;;;;;;;;;;5056048;28;20505;-69
2021/07/03 02:20:48;;;;;;;5.45;2.25;;;;;;;;;;5056208;28;20036;-68
2021/07/03 02:23:15;;;;;;;4.40;2.90;;;;;;;;;;5055794;28;20492;-68
2021/07/03 02:25:41;;;;;;;4.60;3.17;;;;;;;;;;5055764;28;20099;-69
2021/07/03 02:28:07;;;;;;;3.70;2.47;;;;;;;;;;5055928;28;20041;-69
2021/07/03 02:30:34;;;;;;;3.75;2.35;;;;;;;;;;5056041;28;20066;-68
2021/07/03 02:33:00;;;;;;;4.15;3.15;;;;;;;;;;5038026;28;20017;-69
2021/07/03 02:35:26;;;;;;;4.78;3.40;;;;;;;;;;5055781;28;20023;-68
2021/07/03 02:37:52;;;;;;;6.50;2.95;;;;;;;;;;5055129;28;20162;-69
2021/07/03 02:40:18;;;;;;;4.30;3.00;;;;;;;;;;5055824;28;20051;-69
2021/07/03 02:42:45;;;;;;;3.45;2.78;;;;;;;;;;5055647;28;20021;-68
2021/07/03 02:45:11;;;;;;;4.75;2.90;;;;;;;;;;5055434;28;20041;-69
2021/07/03 02:47:38;;;;;;;4.47;3.47;;;;;;;;;;5055185;28;20481;-69
2021/07/03 02:50:04;;;;;;;4.47;3.38;;;;;;;;;;5055536;28;20020;-69
2021/07/03 02:52:30;;;;;;;5.38;3.30;;;;;;;;;;5055233;28;20482;-69
2021/07/03 02:54:57;;;;;;;5.53;3.05;;;;;;;;;;5055473;28;20028;-69
2021/07/03 02:57:23;;;;;;;5.07;3.53;;;;;;;;;;5055314;28;20084;-69
2021/07/03 02:59:48;;;;;;;8.23;3.50;;;;;;;;;;5055120;28;20416;-69
2021/07/03 03:02:15;;;;;;;8.98;3.60;;;;;;;;;;5055488;28;20028;-69
2021/07/03 03:04:41;;;;;;;4.55;3.45;;;;;;;;;;5055204;28;20025;-68
2021/07/03 03:07:07;;;;;;;9.27;3.88;;;;;;;;;;5054990;28;20182;-69
2021/07/03 03:09:33;;;;;;;4.72;3.53;;;;;;;;;;5054998;28;20021;-68
2021/07/03 03:11:58;;;;;;;12.45;5.30;;;;;;;;;;5055043;28;20029;-69
2021/07/03 03:14:24;;;;;;;7.50;3.20;;;;;;;;;;5055104;28;20520;-69
2021/07/03 03:16:51;;;;;;;8.88;3.75;;;;;;;;;;5053833;28;20493;-69
2021/07/03 03:19:17;;;;;;;7.40;3.60;;;;;;;;;;5054908;28;20024;-69
2021/07/03 03:21:42;;;;;;;6.38;3.53;;;;;;;;;;5054501;28;20013;-68
2021/07/03 03:24:09;;;;;;;5.40;3.10;;;;;;;;;;5054809;28;20024;-69
2021/07/03 03:26:35;;;;;;;9.40;3.90;;;;;;;;;;5054650;28;20009;-68
2021/07/03 03:29:02;;;;;;;3.72;3.13;;;;;;;;;;5054701;28;20099;-69
2021/07/03 03:31:28;;;;;;;4.38;3.28;;;;;;;;;;5054775;28;20386;-68
2021/07/03 03:33:54;;;;;;;6.53;3.67;;;;;;;;;;5036661;28;20032;-69
2021/07/03 03:36:20;;;;;;;4.90;3.25;;;;;;;;;;5054571;28;20017;-68
2021/07/03 03:38:46;;;;;;;4.13;2.90;;;;;;;;;;5057885;28;20139;-68
2021/07/03 03:41:13;;;;;;;5.68;3.10;;;;;;;;;;5057003;28;20013;-69
2021/07/03 03:43:40;;;;;;;7.25;3.38;;;;;;;;;;5054247;28;20025;-69
2021/07/03 03:46:05;;;;;;;3.20;2.65;;;;;;;;;;5054310;28;20044;-69
2021/07/03 03:48:32;;;;;;;6.22;3.95;;;;;;;;;;5054432;28;20027;-68
2021/07/03 03:50:58;;;;;;;5.15;3.70;;;;;;;;;;5054231;28;20020;-69
2021/07/03 03:53:24;;;;;;;5.30;3.63;;;;;;;;;;5054372;28;20017;-69
2021/07/03 03:55:50;;;;;;;6.88;3.53;;;;;;;;;;5054514;28;20094;-69
2021/07/03 03:58:16;;;;;;;5.28;3.03;;;;;;;;;;5036620;28;20120;-69
2021/07/03 04:00:42;;;;;;;5.53;3.72;;;;;;;;;;5054099;28;20025;-69
2021/07/03 04:03:08;;;;;;;3.88;3.20;;;;;;;;;;5054132;28;20017;-69
2021/07/03 04:05:34;;;;;;;5.72;3.30;;;;;;;;;;5035908;28;20020;-69
2021/07/03 04:07:59;;;;;;;3.78;3.33;;;;;;;;;;5054017;28;20024;-69
2021/07/03 04:10:25;;;;;;;6.25;3.75;;;;;;;;;;5053964;28;20021;-69
2021/07/03 04:12:50;;;;;;;9.02;4.05;;;;;;;;;;5054170;28;20028;-69
2021/07/03 04:15:17;;;;;;;6.30;3.53;;;;;;;;;;5054156;28;20158;-69
2021/07/03 04:17:42;;;;;;;5.50;3.92;;;;;;;;;;5053502;28;20104;-69
2021/07/03 04:20:09;;;;;;;5.40;3.25;;;;;;;;;;5053713;28;20564;-68
2021/07/03 04:22:36;;;;;;;5.68;3.33;;;;;;;;;;5053822;28;20021;-69
2021/07/03 04:25:03;;;;;;;5.82;4.35;;;;;;;;;;5053704;28;20023;-70
2021/07/03 04:27:29;;;;;;;6.93;3.72;;;;;;;;;;5035801;28;20028;-69
2021/07/03 04:29:55;;;;;;;5.50;3.47;;;;;;;;;;5053352;28;20043;-69
2021/07/03 04:32:21;;;;;;;4.93;3.53;;;;;;;;;;5053768;28;20021;-69
2021/07/03 04:34:48;;;;;;;4.57;3.28;;;;;;;;;;5053315;28;20030;-68
2021/07/03 04:37:14;;;;;;;6.60;3.17;;;;;;;;;;5053548;28;20024;-69
2021/07/03 04:39:39;;;;;;;5.00;3.70;;;;;;;;;;5053220;28;20054;-68
2021/07/03 04:42:05;;;;;;;3.97;3.50;;;;;;;;;;5053397;28;20025;-69
2021/07/03 04:44:31;;;;;;;3.42;3.13;;;;;;;;;;5053125;28;20045;-68
2021/07/03 04:46:57;;;;;;;5.82;3.28;;;;;;;;;;5053356;28;20017;-69
2021/07/03 04:49:22;;;;;;;3.95;3.38;;;;;;;;;;5053188;28;20021;-68
2021/07/03 04:51:48;;;;;;;5.65;2.97;;;;;;;;;;5052893;28;20044;-69
2021/07/03 04:54:14;;;;;;;4.65;2.85;;;;;;;;;;5053294;28;20016;-69
2021/07/03 04:56:40;;;;;;;4.93;3.00;;;;;;;;;;5053122;28;20005;-69
2021/07/03 04:59:06;;;;;;;5.78;3.80;;;;;;;;;;5052993;28;20025;-69
2021/07/03 05:01:32;;;;;;;5.18;3.53;;;;;;;;;;5052812;28;20021;-70
2021/07/03 05:03:57;;;;;;;8.05;3.17;;;;;;;;;;5052999;28;20017;-69
2021/07/03 05:06:23;;;;;;;6.35;3.33;;;;;;;;;;5052757;28;20017;-69
2021/07/03 05:08:49;;;;;;;3.10;2.63;;;;;;;;;;5052864;28;20071;-69
2021/07/03 05:11:15;;;;;;;6.65;3.97;;;;;;;;;;5053056;28;20421;-69
2021/07/03 05:13:42;;;;;;;3.03;2.80;;;;;;;;;;5052551;28;20021;-69
2021/07/03 05:16:07;;;;;;;5.35;3.67;;;;;;;;;;5052855;28;20062;-70
2021/07/03 05:18:33;;;;;;;3.25;2.92;;;;;;;;;;5052632;28;20104;-69
2021/07/03 05:20:59;;;;;;;4.15;3.10;;;;;;;;;;5052625;28;20481;-69
2021/07/03 05:23:26;;;;;;;6.28;3.50;;;;;;;;;;5052642;28;20013;-69
2021/07/03 05:25:54;;;;;;;5.90;3.45;;;;;;;;;;5052383;28;20028;-70
2021/07/03 05:28:20;;;;;;;4.97;3.47;;;;;;;;;;5052602;28;20047;-70
2021/07/03 05:30:48;;;;;;;4.28;3.25;;;;;;;;;;5052396;28;20735;-69
2021/07/03 05:33:13;;;;;;;6.18;3.50;;;;;;;;;;5052514;28;20014;-69
2021/07/03 05:35:39;;;;;;;3.25;2.90;;;;;;;;;;5052329;28;20029;-69
2021/07/03 05:38:06;;;;;;;8.43;3.90;;;;;;;;;;5052261;28;20029;-70
2021/07/03 05:40:32;;;;;;;4.13;2.40;;;;;;;;;;5051892;28;20021;-69
2021/07/03 05:42:57;;;;;;;5.43;3.17;;;;;;;;;;5052466;28;20053;-70
2021/07/03 05:45:23;;;;;;;4.55;2.92;;;;;;;;;;5052332;28;20108;-70
2021/07/03 05:47:50;;;;;;;3.55;3.00;;;;;;;;;;5052062;28;20017;-70
2021/07/03 05:50:18;;;;;;;3.55;2.50;;;;;;;;;;5052173;28;20535;-70
2021/07/03 05:52:44;;;;;;;4.60;2.78;;;;;;;;;;5052343;28;20492;-70
2021/07/03 05:55:10;;;;;;;4.82;2.95;;;;;;;;;;5052276;28;20367;-71
2021/07/03 05:57:36;;;;;;;4.00;2.70;;;;;;;;;;5059952;28;20013;-70
2021/07/03 06:00:04;;;;;;;4.38;2.80;;;;;;;;;;5053202;28;20051;-70
2021/07/03 06:02:31;;;;;;;3.10;2.63;;;;;;;;;;5052125;28;20131;-69
2021/07/03 06:04:57;;;;;;;3.78;3.08;;;;;;;;;;5052071;28;20082;-70
2021/07/03 06:07:25;;;;;;;4.30;3.00;;;;;;;;;;5052259;28;20089;-70
2021/07/03 06:09:52;;;;;;;5.50;2.65;;;;;;;;;;5052081;28;20373;-70
2021/07/03 06:12:18;;;;;;;5.93;3.40;;;;;;;;;;5052268;28;20029;-70
2021/07/03 06:14:44;;;;;;;3.30;3.00;;;;;;;;;;5051876;28;20013;-70
2021/07/03 06:17:13;;;;;;;3.97;2.40;;;;;;;;;;5052073;28;20078;-70
2021/07/03 06:19:40;;;;;;;2.83;2.50;;;;;;;;;;5051775;28;20075;-70
2021/07/03 06:22:06;;;;;;;3.28;2.80;;;;;;;;;;5052051;28;20021;-71
2021/07/03 06:24:32;;;;;;;6.55;2.80;;;;;;;;;;5051957;28;20020;-70
2021/07/03 06:26:58;;;;;;;3.45;2.17;;;;;;;;;;5051944;28;20017;-72
2021/07/03 06:29:24;;;;;;;2.55;2.35;;;;;;;;;;5051963;28;20037;-72
2021/07/03 06:31:51;;;;;;;3.22;2.83;;;;;;;;;;5051732;28;20103;-71
2021/07/03 06:34:16;;;;;;;2.75;2.53;;;;;;;;;;5051788;28;20021;-70
2021/07/03 06:36:42;;;;;;;3.90;2.85;;;;;;;;;;5052009;28;20331;-70
2021/07/03 06:39:08;;;;;;;3.33;2.47;;;;;;;;;;5051688;28;20050;-71
2021/07/03 06:41:34;;;;;;;3.63;2.70;;;;;;;;;;5051608;28;20020;-70
2021/07/03 06:44:00;;;;;;;5.47;2.35;;;;;;;;;;5051491;28;20346;-71
2021/07/03 06:46:28;;;;;;;4.03;2.22;;;;;;;;;;5051797;28;20381;-70
2021/07/03 06:48:54;;;;;;;3.05;2.65;;;;;;;;;;5051958;28;20021;-71
2021/07/03 06:51:20;;;;;;;3.55;2.60;;;;;;;;;;5052441;28;20017;-71
2021/07/03 06:53:46;;;;;;;2.92;2.60;;;;;;;;;;5055208;28;20021;-70
2021/07/03 06:56:12;;;;;;;5.18;2.90;;;;;;;;;;5055741;28;20013;-70
2021/07/03 06:58:38;;;;;;;2.42;2.22;;;;;;;;;;5055269;28;20543;-70
2021/07/03 07:01:03;;;;;;;2.95;2.10;;;;;;;;;;5055219;28;20012;-68
2021/07/03 07:03:30;;;;;;;3.60;2.80;;;;;;;;;;5055354;28;20015;-70
2021/07/03 07:05:56;;;;;;;3.00;2.60;;;;;;;;;;5055236;28;20098;-70
2021/07/03 07:08:23;;;;;;;2.50;2.30;;;;;;;;;;5055271;28;20021;-70
2021/07/03 07:10:48;;;;;;;3.30;2.42;;;;;;;;;;5055059;28;20020;-69
2021/07/03 07:13:15;;;;;;;2.67;2.30;;;;;;;;;;5055208;28;20505;-70
2021/07/03 07:15:41;;;;;;;3.13;2.70;;;;;;;;;;5054758;28;20092;-69
2021/07/03 07:18:06;;;;;;;2.60;2.40;;;;;;;;;;5054901;28;20028;-70
2021/07/03 07:20:32;;;;;;;2.47;2.28;;;;;;;;;;5055280;28;20013;-69
2021/07/03 07:22:58;;;;;;;3.63;2.58;;;;;;;;;;5054895;28;20044;-70
2021/07/03 07:25:25;;;;;;;5.55;2.60;;;;;;;;;;5055044;28;20020;-71
2021/07/03 07:27:51;;;;;;;5.43;2.72;;;;;;;;;;5054481;28;20457;-70
2021/07/03 07:30:19;;;;;;;2.90;2.63;;;;;;;;;;5054678;28;20470;-69
2021/07/03 07:32:46;;;;;;;3.10;2.80;;;;;;;;;;5054635;28;20025;-70
2021/07/03 07:35:12;;;;;;;3.40;2.70;;;;;;;;;;5054867;28;20017;-70
2021/07/03 07:37:39;;;;;;;5.30;3.38;;;;;;;;;;5054163;28;20021;-69
2021/07/03 07:40:06;;;;;;;4.70;3.35;;;;;;;;;;5054571;28;20370;-70
2021/07/03 07:42:33;;;;;;;3.97;2.90;;;;;;;;;;5054631;28;20406;-69
2021/07/03 07:44:59;;;;;;;5.55;3.08;;;;;;;;;;5054234;28;20132;-70
2021/07/03 07:47:25;;;;;;;3.70;2.90;;;;;;;;;;5054631;28;20052;-70
2021/07/03 07:49:50;;;;;;;2.60;2.40;;;;;;;;;;5054211;28;20021;-70
2021/07/03 07:52:17;;;;;;;4.40;3.30;;;;;;;;;;5054694;28;20477;-70
2021/07/03 07:54:43;;;;;;;4.10;2.60;;;;;;;;;;5054124;28;20482;-70
2021/07/03 07:57:10;;;;;;;2.80;2.60;;;;;;;;;;5054319;28;20092;-70
2021/07/03 07:59:35;;;;;;;2.92;2.50;;;;;;;;;;5053853;28;20436;-70
2021/07/03 08:02:02;;;;;;;3.30;2.60;;;;;;;;;;5054126;28;20021;-70
2021/07/03 08:04:28;;;;;;;2.75;2.50;;;;;;;;;;5053612;28;20025;-70
2021/07/03 08:06:54;;;;;;;2.50;2.30;;;;;;;;;;5054257;28;20017;-70
2021/07/03 08:09:20;;;;;;;4.15;2.92;;;;;;;;;;5054244;28;20013;-71
2021/07/03 08:11:47;;;;;;;3.20;2.83;;;;;;;;;;5053831;28;20020;-70
2021/07/03 08:14:13;;;;;;;9.48;2.92;;;;;;;;;;5054303;28;20056;-70
2021/07/03 08:16:39;;;;;;;3.10;2.80;;;;;;;;;;5053956;28;20350;-70
2021/07/03 08:19:05;;;;;;;3.67;2.55;;;;;;;;;;5053820;28;20025;-70
2021/07/03 08:21:31;;;;;;;2.45;2.20;;;;;;;;;;5053715;28;20024;-71
2021/07/03 08:23:58;;;;;;;3.67;2.80;;;;;;;;;;5053765;28;20025;-71
2021/07/03 08:26:25;;;;;;;3.65;2.40;;;;;;;;;;5053778;28;20381;-71
2021/07/03 08:28:50;;;;;;;3.13;2.40;;;;;;;;;;5053528;28;20014;-72
2021/07/03 08:31:17;;;;;;;2.70;2.50;;;;;;;;;;5053938;28;20024;-71
2021/07/03 08:33:43;;;;;;;2.53;2.33;;;;;;;;;;5053663;28;20021;-70
2021/07/03 08:36:09;;;;;;;4.30;2.78;;;;;;;;;;5053495;28;20013;-71
2021/07/03 08:38:35;;;;;;;3.40;2.63;;;;;;;;;;5053358;28;20027;-70
2021/07/03 08:41:02;;;;;;;2.50;2.30;;;;;;;;;;5035430;28;20108;-71
2021/07/03 08:43:28;;;;;;;2.47;2.15;;;;;;;;;;5035632;28;20059;-70
2021/07/03 08:45:55;;;;;;;2.80;2.30;;;;;;;;;;5052957;28;20470;-70
2021/07/03 08:48:21;;;;;;;3.92;2.20;;;;;;;;;;5053333;28;20044;-71
2021/07/03 08:50:47;;;;;;;2.38;2.17;;;;;;;;;;5053202;28;20059;-70
2021/07/03 08:53:13;;;;;;;3.25;2.38;;;;;;;;;;5053304;28;20021;-70
2021/07/03 08:55:39;;;;;;;2.80;2.50;;;;;;;;;;5052928;28;20017;-70
2021/07/03 08:58:05;;;;;;;2.28;2.08;;;;;;;;;;5052883;28;20035;-70
2021/07/03 09:00:35;;;;;;;3.25;1.85;;;;;;;;;;5053083;28;20075;-70
2021/07/03 09:03:14;;;;;;;3.10;2.42;;;;;;;;;;5053118;28;20059;-70
2021/07/03 09:05:41;;;;;;;4.97;2.00;;;;;;;;;;5052799;28;20413;-70
2021/07/03 09:08:10;;;;;;;3.88;2.20;;;;;;;;;;5052933;28;20413;-70
2021/07/03 09:10:39;;;;;;;2.58;1.90;;;;;;;;;;5052826;28;20029;-70
2021/07/03 09:13:06;;;;;;;3.38;2.20;;;;;;;;;;5053028;28;20040;-70
2021/07/03 09:15:32;;;;;;;2.60;2.40;;;;;;;;;;5051845;28;20025;-71
2021/07/03 09:18:00;;;;;;;5.63;2.08;;;;;;;;;;5030534;28;20033;-70
2021/07/03 09:20:32;;;;;;;2.08;1.88;;;;;;;;;;5051624;28;20349;-71
2021/07/03 09:22:59;;;;;;;2.75;1.90;;;;;;;;;;5052643;28;20059;-71
2021/07/03 09:25:28;;;;;;;2.22;1.80;;;;;;;;;;5052755;28;20021;-70
2021/07/03 09:27:53;;;;;;;3.35;2.40;;;;;;;;;;5052360;28;20025;-71
2021/07/03 09:30:20;;;;;;;2.25;2.05;;;;;;;;;;5052573;28;20029;-71
2021/07/03 09:32:50;;;;;;;2.63;2.13;;;;;;;;;;5052635;28;20519;-70
2021/07/03 09:35:17;;;;;;;2.63;2.40;;;;;;;;;;5052742;28;20063;-71
2021/07/03 09:37:43;;;;;;;3.17;2.03;;;;;;;;;;5052208;28;20071;-70
2021/07/03 09:40:09;;;;;;;3.55;1.98;;;;;;;;;;5052152;28;20413;-70
2021/07/03 09:42:39;;;;;;;4.13;2.20;;;;;;;;;;5052484;28;20408;-70
2021/07/03 09:45:07;;;;;;;2.95;1.98;;;;;;;;;;5052136;28;20048;-70
2021/07/03 09:47:32;;;;;;;2.30;2.10;;;;;;;;;;5052266;28;20009;-71
2021/07/03 09:50:03;;;;;;;2.72;2.17;;;;;;;;;;5052279;28;20028;-70
2021/07/03 09:52:28;;;;;;;4.05;1.40;;;;;;;;;;5052276;28;20096;-70
2021/07/03 09:54:55;;;;;;;3.67;1.88;;;;;;;;;;5051949;28;20112;-70
2021/07/03 09:57:22;;;;;;;4.10;1.73;;;;;;;;;;5052312;28;20017;-71
2021/07/03 09:59:49;;;;;;;2.95;1.65;;;;;;;;;;5052049;28;20025;-72
2021/07/03 10:02:16;;;;;;;2.47;1.70;;;;;;;;;;5034882;28;20052;-70
2021/07/03 10:04:41;;;;;;;2.08;1.88;;;;;;;;;;5052222;28;20021;-70
2021/07/03 10:07:10;;;;;;;2.80;1.50;;;;;;;;;;5052120;28;20066;-70
2021/07/03 10:09:45;;;;;;;3.10;1.85;;;;;;;;;;5051761;28;20021;-70
2021/07/03 10:12:14;;;;;;;3.13;1.83;;;;;;;;;;5052117;28;20391;-72
2021/07/03 10:14:42;;;;;;;3.13;1.90;;;;;;;;;;5052353;28;20079;-68
2021/07/03 10:17:10;;;;;;;3.42;1.70;;;;;;;;;;5052034;28;20041;-69
2021/07/03 10:19:37;;;;;;;5.05;1.98;;;;;;;;;;5051743;28;20091;-68
2021/07/03 10:22:23;;;;;;;3.22;1.90;;;;;;;;;;5034234;28;20013;-69
2021/07/03 10:24:53;;;;;;;2.63;2.00;;;;;;;;;;5051862;28;20025;-69
2021/07/03 10:27:24;;;;;;;3.83;2.08;;;;;;;;;;5054793;28;20490;-69
2021/07/03 10:29:55;;;;;;;3.17;2.13;;;;;;;;;;5037894;28;20020;-69
2021/07/03 10:32:23;;;;;;;2.30;2.10;;;;;;;;;;5056671;28;20362;-69
2021/07/03 10:34:49;;;;;;;3.40;2.10;;;;;;;;;;5055819;28;20104;-68
2021/07/03 10:37:17;;;;;;;5.60;2.38;;;;;;;;;;5055955;28;20005;-69
2021/07/03 10:39:43;;;;;;;2.40;2.20;;;;;;;;;;5055513;28;20028;-69
2021/07/03 10:42:10;;;;;;;3.88;2.28;;;;;;;;;;5055641;28;20020;-69
2021/07/03 10:44:40;;;;;;;2.17;2.00;;;;;;;;;;5055606;28;20048;-68
2021/07/03 10:47:07;;;;;;;2.67;2.38;;;;;;;;;;5055419;28;20017;-69
2021/07/03 10:49:35;;;;;;;4.15;2.20;;;;;;;;;;5055337;28;20351;-69
2021/07/03 10:52:10;;;;;;;2.60;2.33;;;;;;;;;;5055740;28;20021;-69
2021/07/03 10:54:35;;;;;;;3.88;2.70;;;;;;;;;;5055592;28;20017;-69
2021/07/03 10:57:06;;;;;;;5.55;2.78;;;;;;;;;;5055608;28;20079;-69
2021/07/03 10:59:36;;;;;;;2.40;2.20;;;;;;;;;;5054960;28;20033;-69
2021/07/03 11:02:09;;;;;;;3.67;2.72;;;;;;;;;;5055210;28;20054;-69
2021/07/03 11:04:54;;;;;;;5.18;2.75;;;;;;;;;;5055263;28;20021;-69
2021/07/03 11:07:24;;;;;;;4.70;2.75;;;;;;;;;;5055485;28;20104;-70
2021/07/03 11:09:50;;;;;;;2.63;2.42;;;;;;;;;;5055037;28;20167;-69
2021/07/03 11:12:18;;;;;;;3.13;2.83;;;;;;;;;;5055236;28;20013;-69
2021/07/03 11:14:51;;;;;;;6.07;3.33;;;;;;;;;;5055330;28;20053;-69
2021/07/03 11:17:18;;;;;;;4.55;3.50;;;;;;;;;;5055182;28;20013;-69
2021/07/03 11:19:47;;;;;;;3.40;3.10;;;;;;;;;;5054684;28;20032;-69
2021/07/03 11:22:13;;;;;;;6.50;3.15;;;;;;;;;;5055176;28;20024;-70
2021/07/03 11:24:46;;;;;;;10.40;3.30;;;;;;;;;;5054668;28;20021;-69
2021/07/03 11:27:20;;;;;;;3.55;2.92;;;;;;;;;;5032826;28;20390;-70
2021/07/03 11:29:46;;;;;;;4.88;2.80;;;;;;;;;;5053942;28;20027;-69
2021/07/03 11:32:14;;;;;;;4.07;3.15;;;;;;;;;;5054773;28;20025;-70
2021/07/03 11:34:49;;;;;;;5.17;3.17;;;;;;;;;;5054826;28;20044;-69
2021/07/03 11:37:25;;;;;;;4.05;3.10;;;;;;;;;;5054438;28;20107;-69
2021/07/03 11:39:52;;;;;;;3.92;2.83;;;;;;;;;;5053764;28;20028;-69
2021/07/03 11:42:25;;;;;;;8.48;2.90;;;;;;;;;;5054787;28;20025;-69
2021/07/03 11:44:54;;;;;;;4.45;2.88;;;;;;;;;;5054296;28;20513;-69
2021/07/03 11:47:31;;;;;;;3.58;2.70;;;;;;;;;;5054592;28;20390;-69
2021/07/03 11:49:57;;;;;;;4.10;2.92;;;;;;;;;;5054385;28;20086;-70
2021/07/03 11:52:23;;;;;;;8.45;2.90;;;;;;;;;;5054597;28;20017;-70
2021/07/03 11:54:48;;;;;;;2.60;2.40;;;;;;;;;;5054260;28;20021;-69
2021/07/03 11:57:15;;;;;;;3.67;2.47;;;;;;;;;;5036540;28;20024;-69
2021/07/03 11:59:41;;;;;;;5.80;3.00;;;;;;;;;;5053953;28;20028;-69
2021/07/03 12:02:08;;;;;;;5.45;2.70;;;;;;;;;;5054124;28;20029;-69
2021/07/03 12:04:34;;;;;;;3.58;2.75;;;;;;;;;;5054301;28;20110;-69
2021/07/03 12:07:01;;;;;;;3.70;2.53;;;;;;;;;;5053929;28;20107;-70
2021/07/03 12:09:34;;;;;;;3.88;2.80;;;;;;;;;;5053973;28;20013;-69
2021/07/03 12:12:00;;;;;;;3.33;2.55;;;;;;;;;;5054012;28;20029;-69
2021/07/03 12:14:27;;;;;;;3.40;2.20;;;;;;;;;;5054075;28;20017;-69
2021/07/03 12:16:57;;;;;;;2.90;2.60;;;;;;;;;;5053670;28;20023;-69
2021/07/03 12:19:24;;;;;;;3.05;2.60;;;;;;;;;;5054047;28;20428;-71
2021/07/03 12:21:51;;;;;;;4.40;2.80;;;;;;;;;;5053501;28;20017;-69
2021/07/03 12:24:17;;;;;;;3.65;2.33;;;;;;;;;;5053925;28;20024;-70
2021/07/03 12:26:50;;;;;;;6.70;2.70;;;;;;;;;;5053751;28;20013;-71
2021/07/03 12:29:24;;;;;;;2.75;2.50;;;;;;;;;;5053621;28;20422;-69
2021/07/03 12:31:51;;;;;;;3.42;2.60;;;;;;;;;;5053450;28;20024;-69
2021/07/03 12:34:28;;;;;;;3.05;2.50;;;;;;;;;;5053584;28;20044;-70
2021/07/03 12:37:03;;;;;;;3.60;2.55;;;;;;;;;;5053447;28;20032;-69
2021/07/03 12:39:29;;;;;;;4.60;2.67;;;;;;;;;;5053412;28;20068;-70
2021/07/03 12:42:04;;;;;;;6.05;2.70;;;;;;;;;;5053563;28;20021;-69
2021/07/03 12:44:44;;;;;;;2.70;2.50;;;;;;;;;;5053676;28;20045;-69
2021/07/03 12:47:19;;;;;;;4.22;3.15;;;;;;;;;;5053348;28;20013;-69
2021/07/03 12:49:49;;;;;;;4.40;3.00;;;;;;;;;;5053022;28;20024;-70
2021/07/03 12:52:16;;;;;;;3.97;3.13;;;;;;;;;;5053637;28;20029;-70
2021/07/03 12:54:45;;;;;;;4.43;3.67;;;;;;;;;;5053057;28;20116;-70
2021/07/03 12:57:11;;;;;;;4.70;2.90;;;;;;;;;;5053417;28;20159;-69
2021/07/03 12:59:38;;;;;;;4.70;3.15;;;;;;;;;;5052968;28;20581;-70
2021/07/03 13:02:09;;;;;;;3.58;3.25;;;;;;;;;;5030957;28;20021;-69
2021/07/03 13:04:36;;;;;;;7.53;3.30;;;;;;;;;;5053031;28;20032;-70
2021/07/03 13:07:04;;;;;;;5.57;3.20;;;;;;;;;;5052678;28;20028;-69
2021/07/03 13:09:30;;;;;;;4.68;3.22;;;;;;;;;;5052962;28;20087;-69
2021/07/03 13:11:56;;;;;;;4.80;3.10;;;;;;;;;;5052755;28;20017;-71
2021/07/03 13:14:22;;;;;;;3.28;2.92;;;;;;;;;;5052939;28;20020;-70
2021/07/03 13:16:49;;;;;;;5.28;3.20;;;;;;;;;;5052868;28;20036;-70
2021/07/03 13:19:15;;;;;;;4.28;3.22;;;;;;;;;;5052856;28;20037;-71
2021/07/03 13:21:40;;;;;;;5.60;3.38;;;;;;;;;;5052322;28;20486;-70
2021/07/03 13:24:07;;;;;;;3.97;2.88;;;;;;;;;;5052716;28;20098;-71
2021/07/03 13:26:32;;;;;;;6.45;2.53;;;;;;;;;;5052644;28;20040;-71
2021/07/03 13:28:59;;;;;;;4.00;3.00;;;;;;;;;;5052492;28;20017;-72
2021/07/03 13:31:24;;;;;;;4.03;3.22;;;;;;;;;;5052610;28;20013;-71
2021/07/03 13:33:51;;;;;;;3.72;2.70;;;;;;;;;;5052535;28;20028;-70
2021/07/03 13:36:17;;;;;;;5.70;3.30;;;;;;;;;;5052387;28;20151;-70
2021/07/03 13:38:44;;;;;;;4.93;3.10;;;;;;;;;;5053145;28;20025;-71
2021/07/03 13:41:10;;;;;;;3.47;3.17;;;;;;;;;;5052930;28;20024;-72
2021/07/03 13:43:37;;;;;;;3.53;3.22;;;;;;;;;;5052434;28;20373;-73
2021/07/03 13:46:03;;;;;;;5.97;3.60;;;;;;;;;;5052095;28;20075;-73
2021/07/03 13:48:29;;;;;;;6.75;3.35;;;;;;;;;;5052483;28;20017;-72
2021/07/03 13:50:55;;;;;;;7.85;3.85;;;;;;;;;;5052052;28;20027;-72
2021/07/03 13:53:21;;;;;;;7.53;3.15;;;;;;;;;;5052479;28;20501;-72
2021/07/03 13:55:47;;;;;;;3.30;3.00;;;;;;;;;;5052277;28;20025;-72
2021/07/03 13:58:13;;;;;;;6.25;3.28;;;;;;;;;;5052197;28;20033;-72
2021/07/03 14:00:40;;;;;;;6.95;3.70;;;;;;;;;;5051969;28;20020;-72
2021/07/03 14:03:05;;;;;;;4.47;3.40;;;;;;;;;;5052003;28;20371;-72
2021/07/03 14:05:31;;;;;;;3.83;3.10;;;;;;;;;;5052015;28;20054;-71
2021/07/03 14:07:57;;;;;;;3.72;3.08;;;;;;;;;;5051884;28;20082;-73
2021/07/03 14:10:24;;;;;;;15.90;4.10;;;;;;;;;;5052225;28;20476;-73
2021/07/03 14:12:50;;;;;;;4.40;3.13;;;;;;;;;;5052029;28;20033;-72
2021/07/03 14:15:15;;;;;;;4.03;3.30;;;;;;;;;;5052080;28;20033;-72
2021/07/03 14:17:41;;;;;;;3.38;3.00;;;;;;;;;;5051636;28;20469;-70
2021/07/03 14:20:09;;;;;;;5.10;3.67;;;;;;;;;;5051989;28;20086;-70
2021/07/03 14:22:36;;;;;;;5.28;3.42;;;;;;;;;;5034482;28;20032;-71
2021/07/03 14:25:03;;;;;;;6.35;4.00;;;;;;;;;;5051969;28;20045;-71
2021/07/03 14:27:29;;;;;;;7.07;3.08;;;;;;;;;;5052118;28;20021;-72
2021/07/03 14:29:55;;;;;;;7.35;3.35;;;;;;;;;;5051604;28;20024;-72
2021/07/03 14:32:21;;;;;;;3.70;3.15;;;;;;;;;;5051965;28;20017;-72
2021/07/03 14:34:47;;;;;;;4.63;3.00;;;;;;;;;;5051650;28;20551;-70
2021/07/03 14:37:13;;;;;;;3.45;2.83;;;;;;;;;;5051825;28;20032;-71
2021/07/03 14:39:40;;;;;;;8.98;3.42;;;;;;;;;;5051543;28;20029;-72
2021/07/03 14:42:06;;;;;;;4.85;3.30;;;;;;;;;;5052100;28;20070;-72